Time;durP1;ratioP1;P1;durP2;ratioP2;P2;SDS_P1;SDS_P2;PMS_P1;PMS_P2;Temp;Humidity;BMP_temperature;BMP_pressure;BME280_temperature;BME280_humidity;BME280_pressure;Samples;Min_cycle;Max_cycle;Signal;HPM_P1;HPM_P2
2022/06/13 00:00:11;;;;;;;;;;;;;;;19.65;74.11;99422.25;3128710;28;19924;-64
2022/06/13 00:01:43;;;;;;;;;;;;;;;19.67;74.04;99431.72;3127273;28;19925;-64
2022/06/13 00:03:14;;;;;;;;;;;;;;;19.58;73.82;99418.44;3128331;28;19924;-64
2022/06/13 00:04:47;;;;;;;;;;;;;;;19.67;73.82;99437.00;3128130;28;20396;-65
2022/06/13 00:06:18;;;;;;;;;;;;;;;19.65;74.00;99432.81;3122314;28;19929;-64
2022/06/13 00:07:51;;;;;;;;;;;;;;;19.66;74.16;99434.47;3128524;28;19931;-64
2022/06/13 00:09:23;;;;;;;;;;;;;;;19.64;74.18;99434.59;3128712;28;19939;-63
2022/06/13 00:10:54;;;;;;;;;;;;;;;19.63;73.92;99432.06;3126267;28;19929;-63
2022/06/13 00:12:26;;;;;;;;;;;;;;;19.63;74.09;99434.72;3127905;28;20015;-63
2022/06/13 00:13:58;;;;;;;;;;;;;;;19.62;74.07;99427.78;3128936;28;19940;-64
2022/06/13 00:15:29;;;;;;;;;;;;;;;19.60;74.23;99438.44;3128215;28;20325;-65
2022/06/13 00:17:01;;;;;;;;;;;;;;;19.60;74.42;99433.16;3128534;28;20381;-66
2022/06/13 00:18:33;;;;;;;;;;;;;;;19.59;74.24;99428.03;3128508;28;20011;-65
2022/06/13 00:20:05;;;;;;;;;;;;;;;19.58;74.23;99437.78;3128274;28;20395;-61
2022/06/13 00:21:38;;;;;;;;;;;;;;;19.58;74.26;99440.41;3128415;28;20037;-63
2022/06/13 00:23:11;;;;;;;;;;;;;;;19.57;74.21;99440.53;3128787;28;19925;-64
2022/06/13 00:24:42;;;;;;;;;;;;;;;19.56;74.21;99437.06;3124409;28;20344;-63
2022/06/13 00:26:14;;;;;;;;;;;;;;;19.54;74.12;99431.06;3128609;28;19932;-63
2022/06/13 00:27:46;;;;;;;;;;;;;;;19.53;74.02;99424.13;3128118;28;19932;-63
2022/06/13 00:29:17;;;;;;;;;;;;;;;19.50;74.05;99419.94;3128083;28;19932;-63
2022/06/13 00:30:49;;;;;;;;;;;;;;;19.49;74.27;99414.78;3125309;28;20042;-64
2022/06/13 00:32:20;;;;;;;;;;;;;;;19.47;74.26;99414.13;3128586;28;19925;-63
2022/06/13 00:33:52;;;;;;;;;;;;;;;19.48;74.05;99416.59;3127957;28;19935;-64
2022/06/13 00:35:24;;;;;;;;;;;;;;;19.50;74.06;99416.47;3128317;28;19944;-63
2022/06/13 00:36:56;;;;;;;;;;;;;;;19.45;74.08;99418.69;3128446;28;19933;-64
2022/06/13 00:38:29;;;;;;;;;;;;;;;19.48;73.88;99421.06;3127709;28;19928;-63
2022/06/13 00:40:00;;;;;;;;;;;;;;;19.47;74.08;99420.22;3128556;28;19925;-64
2022/06/13 00:41:33;;;;;;;;;;;;;;;19.46;73.80;99417.69;3128197;28;19925;-63
2022/06/13 00:43:06;;;;;;;;;;;;;;;19.49;73.84;99422.72;3127921;28;19928;-63
2022/06/13 00:44:39;;;;;;;;;;;;;;;19.48;73.99;99424.53;3128060;28;19932;-63
2022/06/13 00:46:19;;;;;;;;;;;;;;;19.49;73.98;99422.72;3128590;28;19924;-63
2022/06/13 00:47:52;;;;;;;;;;;;;;;19.49;73.94;99426.22;3128066;28;19925;-63
2022/06/13 00:49:25;;;;;;;;;;;;;;;19.50;74.06;99413.84;3128371;28;19931;-63
2022/06/13 00:50:58;;;;;;;;;;;;;;;19.48;73.72;99416.59;3127887;28;19924;-63
2022/06/13 00:52:31;;;;;;;;;;;;;;;19.46;73.89;99423.84;3127903;28;19990;-62
2022/06/13 00:54:04;;;;;;;;;;;;;;;19.50;73.82;99424.41;3127800;28;19925;-62
2022/06/13 00:55:37;;;;;;;;;;;;;;;19.49;73.85;99425.34;3128091;28;19951;-63
2022/06/13 00:57:14;;;;;;;;;;;;;;;19.52;73.91;99423.31;3128341;28;19929;-63
2022/06/13 00:58:48;;;;;;;;;;;;;;;19.51;73.93;99426.91;3127584;28;20027;-63
2022/06/13 01:00:20;;;;;;;;;;;;;;;19.54;73.93;99431.06;3125529;28;20023;-63
2022/06/13 01:01:52;;;;;;;;;;;;;;;19.55;73.91;99433.59;3127953;28;20019;-63
2022/06/13 01:03:25;;;;;;;;;;;;;;;19.55;73.88;99422.16;3127914;28;19990;-61
2022/06/13 01:04:58;;;;;;;;;;;;;;;19.57;73.86;99436.09;3128750;28;19924;-61
2022/06/13 01:06:32;;;;;;;;;;;;;;;19.57;73.69;99424.69;3128345;28;19938;-60
2022/06/13 01:08:05;;;;;;;;;;;;;;;19.56;73.67;99429.13;3128289;28;19932;-61
2022/06/13 01:11:28;;;;;;;;;;;;;;;19.55;73.49;99428.31;3122246;28;19940;-63
2022/06/13 01:13:01;;;;;;;;;;;;;;;19.57;73.45;99419.41;3123141;28;20467;-62
2022/06/13 01:14:53;;;;;;;;;;;;;;;19.55;73.47;99414.25;3127864;28;20425;-62
2022/06/13 01:16:33;;;;;;;;;;;;;;;19.55;73.34;99415.09;3126389;28;19925;-63
2022/06/13 01:18:14;;;;;;;;;;;;;;;19.56;73.19;99421.22;3126098;28;19994;-63
2022/06/13 01:20:01;;;;;;;;;;;;;;;19.57;73.35;99425.53;3127414;28;19925;-64
2022/06/13 01:21:38;;;;;;;;;;;;;;;19.60;73.31;99425.25;3127729;28;20236;-62
2022/06/13 01:23:27;;;;;;;;;;;;;;;19.60;73.30;99433.16;3127940;28;20396;-63
2022/06/13 01:25:10;;;;;;;;;;;;;;;19.63;73.25;99432.91;3126382;28;19924;-63
2022/06/13 01:26:58;;;;;;;;;;;;;;;19.65;72.99;99433.63;3127199;28;20387;-63
2022/06/13 01:28:42;;;;;;;;;;;;;;;19.67;73.13;99436.13;3127418;28;19937;-63
2022/06/13 01:30:38;;;;;;;;;;;;;;;19.68;72.79;99435.19;3120512;28;20350;-64
2022/06/13 01:32:17;;;;;;;;;;;;;;;19.68;72.84;99436.00;3110454;28;20652;-63
2022/06/13 01:33:58;;;;;;;;;;;;;;;19.70;72.86;99442.00;3122988;28;19925;-63
2022/06/13 01:35:34;;;;;;;;;;;;;;;19.71;72.69;99432.25;3123113;28;19924;-63
2022/06/13 01:37:11;;;;;;;;;;;;;;;19.71;72.63;99432.25;3123561;28;19928;-63
2022/06/13 01:38:50;;;;;;;;;;;;;;;19.71;72.83;99433.09;3122759;28;20448;-63
2022/06/13 01:40:27;;;;;;;;;;;;;;;19.74;72.84;99432.81;3124789;28;20004;-63
2022/06/13 01:42:06;;;;;;;;;;;;;;;19.73;72.60;99432.97;3128634;28;20461;-63
2022/06/13 01:43:45;;;;;;;;;;;;;;;19.75;72.88;99441.56;3130090;28;19924;-63
2022/06/13 01:45:23;;;;;;;;;;;;;;;19.74;72.67;99438.09;3130084;28;19982;-63
2022/06/13 01:46:59;;;;;;;;;;;;;;;19.73;72.70;99438.25;3130058;28;19924;-63
2022/06/13 01:48:35;;;;;;;;;;;;;;;19.73;72.56;99436.44;3130183;28;19929;-64
2022/06/13 01:50:12;;;;;;;;;;;;;;;19.76;72.59;99440.63;3130344;28;19925;-65
2022/06/13 01:51:49;;;;;;;;;;;;;;;19.76;72.27;99440.63;3130026;28;19924;-62
2022/06/13 01:53:24;;;;;;;;;;;;;;;19.76;72.48;99432.69;3129505;28;19929;-62
2022/06/13 01:54:59;;;;;;;;;;;;;;;19.75;72.37;99433.66;3129742;28;19936;-62
2022/06/13 01:56:33;;;;;;;;;;;;;;;19.75;72.17;99438.94;3129552;28;19982;-63
2022/06/13 01:58:08;;;;;;;;;;;;;;;19.73;72.46;99431.16;3129883;28;19924;-62
2022/06/13 01:59:50;;;;;;;;;;;;;;;19.71;72.54;99433.09;3129832;28;20402;-62
2022/06/13 02:01:24;;;;;;;;;;;;;;;19.70;72.32;99438.50;3128767;28;20073;-62
2022/06/13 02:03:00;;;;;;;;;;;;;;;19.71;72.42;99430.44;3129743;28;19928;-62
2022/06/13 02:04:36;;;;;;;;;;;;;;;19.72;72.64;99429.47;3129453;28;20406;-63
2022/06/13 02:06:10;;;;;;;;;;;;;;;19.72;72.41;99426.00;3129880;28;20011;-63
2022/06/13 02:07:46;;;;;;;;;;;;;;;19.70;72.46;99426.16;3129472;28;20011;-63
2022/06/13 02:09:20;;;;;;;;;;;;;;;19.69;72.26;99426.28;3129825;28;19935;-63
2022/06/13 02:10:55;;;;;;;;;;;;;;;19.66;72.11;99427.38;3127081;28;20073;-63
2022/06/13 02:12:29;;;;;;;;;;;;;;;19.64;72.00;99423.16;3129862;28;19925;-63
2022/06/13 02:14:05;;;;;;;;;;;;;;;19.66;71.98;99418.63;3130061;28;19925;-63
2022/06/13 02:15:40;;;;;;;;;;;;;;;19.65;71.86;99423.06;3129736;28;20460;-62
2022/06/13 02:17:12;;;;;;;;;;;;;;;19.63;71.68;99422.31;3129677;28;19932;-62
2022/06/13 02:18:51;;;;;;;;;;;;;;;19.63;71.58;99427.63;3129380;28;20372;-62
2022/06/13 02:20:26;;;;;;;;;;;;;;;19.62;71.95;99425.94;3129742;28;19964;-63
2022/06/13 02:22:00;;;;;;;;;;;;;;;19.62;71.62;99422.47;3130001;28;19925;-63
2022/06/13 02:23:32;;;;;;;;;;;;;;;19.60;71.67;99425.25;3129641;28;19929;-63
2022/06/13 02:25:06;;;;;;;;;;;;;;;19.59;71.84;99423.59;3129717;28;19925;-63
2022/06/13 02:26:38;;;;;;;;;;;;;;;19.58;71.79;99429.84;3129752;28;19936;-63
2022/06/13 02:28:13;;;;;;;;;;;;;;;19.58;71.49;99427.22;3129974;28;19931;-63
2022/06/13 02:29:47;;;;;;;;;;;;;;;19.55;71.70;99427.44;3126230;28;20807;-62
2022/06/13 02:31:21;;;;;;;;;;;;;;;19.54;71.76;99439.00;3128647;28;19925;-63
2022/06/13 02:32:56;;;;;;;;;;;;;;;19.50;72.02;99429.69;3129567;28;20382;-63
2022/06/13 02:34:31;;;;;;;;;;;;;;;19.46;72.18;99431.75;3129406;28;19986;-63
2022/06/13 02:36:10;;;;;;;;;;;;;;;19.43;72.46;99433.81;3129481;28;19998;-62
2022/06/13 02:37:44;;;;;;;;;;;;;;;19.40;72.96;99431.44;3127875;28;19931;-62
2022/06/13 02:39:19;;;;;;;;;;;;;;;19.37;73.09;99429.91;3126032;28;19924;-62
2022/06/13 02:40:52;;;;;;;;;;;;;;;19.35;73.28;99433.69;3129418;28;19986;-62
2022/06/13 02:42:27;;;;;;;;;;;;;;;19.28;73.49;99443.91;3130829;28;19924;-63
2022/06/13 02:44:03;;;;;;;;;;;;;;;19.28;73.62;99430.72;3129666;28;19970;-63
2022/06/13 02:45:36;;;;;;;;;;;;;;;19.26;73.62;99441.44;3128901;28;20042;-62
2022/06/13 02:47:10;;;;;;;;;;;;;;;19.25;73.97;99433.63;3129749;28;19929;-63
2022/06/13 02:48:46;;;;;;;;;;;;;;;19.21;74.04;99440.16;3129388;28;19975;-64
2022/06/13 02:50:22;;;;;;;;;;;;;;;19.17;74.36;99436.13;3129234;28;19976;-62
2022/06/13 02:51:58;;;;;;;;;;;;;;;19.12;74.74;99441.78;3127398;28;19986;-62
2022/06/13 02:53:33;;;;;;;;;;;;;;;19.05;75.09;99436.19;3129198;28;20393;-62
2022/06/13 02:55:06;;;;;;;;;;;;;;;19.01;75.15;99437.41;3127445;28;20386;-63
2022/06/13 02:57:23;;;;;;;;;;;;;;;18.97;75.24;99436.03;3129517;28;19925;-64
2022/06/13 02:58:38;;;;;;;;;;;;;;;18.95;75.36;99435.31;3127186;28;19924;-64
2022/06/13 03:00:15;;;;;;;;;;;;;;;18.94;75.49;99441.56;3129083;28;19935;-64
2022/06/13 03:01:49;;;;;;;;;;;;;;;18.93;75.49;99436.41;3129158;28;19925;-64
2022/06/13 03:03:25;;;;;;;;;;;;;;;18.90;75.94;99434.88;3128450;28;20015;-63
2022/06/13 03:05:00;;;;;;;;;;;;;;;18.88;75.66;99435.97;3125370;28;20011;-64
2022/06/13 03:06:38;;;;;;;;;;;;;;;18.83;75.89;99425.81;3126533;28;19990;-63
2022/06/13 03:08:17;;;;;;;;;;;;;;;18.81;75.98;99433.00;3128370;28;19925;-63
2022/06/13 03:09:51;;;;;;;;;;;;;;;18.80;76.01;99436.63;3128470;28;19931;-64
2022/06/13 03:11:33;;;;;;;;;;;;;;;18.80;75.90;99437.44;3129437;28;19932;-64
2022/06/13 03:13:06;;;;;;;;;;;;;;;18.78;75.93;99438.53;3129159;28;19931;-64
2022/06/13 03:14:41;;;;;;;;;;;;;;;18.78;75.94;99439.41;3127213;28;19990;-64
2022/06/13 03:16:15;;;;;;;;;;;;;;;18.79;75.79;99435.78;3128654;28;19975;-64
2022/06/13 03:17:49;;;;;;;;;;;;;;;18.81;75.85;99433.88;3128851;28;19925;-64
2022/06/13 03:19:23;;;;;;;;;;;;;;;18.83;75.65;99442.47;3128994;28;19928;-64
2022/06/13 03:21:00;;;;;;;;;;;;;;;18.83;75.48;99436.34;3129116;28;19932;-64
2022/06/13 03:22:34;;;;;;;;;;;;;;;18.79;75.44;99429.69;3128944;28;19940;-64
2022/06/13 03:24:13;;;;;;;;;;;;;;;18.83;75.33;99437.19;3129083;28;19929;-63
2022/06/13 03:25:48;;;;;;;;;;;;;;;18.82;75.40;99440.81;3128864;28;19933;-64
2022/06/13 03:27:24;;;;;;;;;;;;;;;18.82;75.34;99437.34;3128859;28;19924;-65
2022/06/13 03:28:57;;;;;;;;;;;;;;;18.83;75.51;99439.81;3129265;28;20415;-64
2022/06/13 03:30:31;;;;;;;;;;;;;;;18.79;75.30;99441.06;3124658;28;20126;-64
2022/06/13 03:32:05;;;;;;;;;;;;;;;18.79;75.21;99433.16;3129216;28;19924;-63
2022/06/13 03:33:53;;;;;;;;;;;;;;;18.79;75.34;99438.44;3130754;28;20378;-63
2022/06/13 03:35:25;;;;;;;;;;;;;;;18.79;75.18;99434.97;3128784;28;19933;-63
2022/06/13 03:36:59;;;;;;;;;;;;;;;18.79;75.37;99435.78;3128884;28;19925;-64
2022/06/13 03:38:34;;;;;;;;;;;;;;;18.80;75.56;99439.25;3128733;28;19924;-63
2022/06/13 03:40:09;;;;;;;;;;;;;;;18.83;75.31;99452.19;3129066;28;19940;-63
2022/06/13 03:41:43;;;;;;;;;;;;;;;18.81;75.42;99447.06;3128721;28;19925;-64
2022/06/13 03:43:17;;;;;;;;;;;;;;;18.79;75.32;99448.97;3129666;28;19936;-64
2022/06/13 03:44:52;;;;;;;;;;;;;;;18.81;75.28;99443.56;3128800;28;19964;-64
2022/06/13 03:46:33;;;;;;;;;;;;;;;18.83;75.14;99437.19;3128646;28;20466;-63
2022/06/13 03:48:08;;;;;;;;;;;;;;;18.83;75.10;99439.00;3128939;28;19947;-63
2022/06/13 03:49:42;;;;;;;;;;;;;;;18.83;75.17;99437.19;3128686;28;19928;-62
2022/06/13 03:51:16;;;;;;;;;;;;;;;18.82;74.99;99440.81;3128841;28;19932;-63
2022/06/13 03:52:49;;;;;;;;;;;;;;;18.81;75.02;99443.56;3128892;28;20353;-63
2022/06/13 03:54:23;;;;;;;;;;;;;;;18.84;75.11;99448.56;3128579;28;20433;-64
2022/06/13 03:55:58;;;;;;;;;;;;;;;18.86;74.87;99447.47;3128658;28;19932;-63
2022/06/13 03:57:32;;;;;;;;;;;;;;;18.89;74.49;99448.19;3128907;28;19939;-64
2022/06/13 03:59:07;;;;;;;;;;;;;;;18.91;74.50;99447.09;3128744;28;20384;-66
2022/06/13 04:00:41;;;;;;;;;;;;;;;18.94;74.22;99448.66;3125281;28;19997;-63
2022/06/13 04:02:13;;;;;;;;;;;;;;;18.95;74.16;99448.50;3128389;28;19944;-63
2022/06/13 04:03:45;;;;;;;;;;;;;;;18.98;74.00;99452.69;3128146;28;19943;-64
2022/06/13 04:05:19;;;;;;;;;;;;;;;19.00;73.80;99458.66;3128885;28;19925;-64
2022/06/13 04:06:51;;;;;;;;;;;;;;;19.03;73.54;99458.41;3128458;28;19924;-64
2022/06/13 04:08:23;;;;;;;;;;;;;;;19.04;73.49;99463.53;3128671;28;19928;-63
2022/06/13 04:09:59;;;;;;;;;;;;;;;19.07;73.21;99462.44;3128704;28;19978;-63
2022/06/13 04:11:33;;;;;;;;;;;;;;;19.09;73.05;99458.72;3128666;28;19929;-64
2022/06/13 04:13:15;;;;;;;;;;;;;;;19.10;72.89;99462.19;3128382;28;20462;-64
2022/06/13 04:14:54;;;;;;;;;;;;;;;19.14;72.86;99449.56;3128328;28;20015;-63
2022/06/13 04:16:34;;;;;;;;;;;;;;;19.17;73.10;99458.06;3128580;28;19925;-64
2022/06/13 04:18:10;;;;;;;;;;;;;;;19.19;nan;99458.75;3128221;28;19982;-63
2022/06/13 04:19:48;;;;;;;;;;;;;;;19.22;72.76;99458.47;3128520;28;19994;-64
2022/06/13 04:21:27;;;;;;;;;;;;;;;19.24;72.84;99469.75;3128248;28;19932;-63
2022/06/13 04:23:04;;;;;;;;;;;;;;;19.25;72.80;99458.22;3128753;28;19925;-64
2022/06/13 04:24:42;;;;;;;;;;;;;;;19.27;72.64;99460.72;3128044;28;20395;-63
2022/06/13 04:26:16;;;;;;;;;;;;;;;19.28;72.46;99463.22;3128418;28;19925;-64
2022/06/13 04:27:53;;;;;;;;;;;;;;;19.30;72.51;99469.22;3128236;28;19978;-63
2022/06/13 04:29:28;;;;;;;;;;;;;;;19.33;72.27;99463.66;3125033;28;20234;-64
2022/06/13 04:31:01;;;;;;;;;;;;;;;19.36;72.33;99459.09;3126680;28;20016;-64
2022/06/13 04:32:36;;;;;;;;;;;;;;;19.38;72.29;99468.56;3128199;28;20164;-63
2022/06/13 04:34:11;;;;;;;;;;;;;;;19.42;72.25;99469.13;3128512;28;20362;-63
2022/06/13 04:35:45;;;;;;;;;;;;;;;19.46;72.24;99468.75;3128330;28;19940;-64
2022/06/13 04:37:18;;;;;;;;;;;;;;;19.48;71.91;99463.31;3127964;28;19978;-64
2022/06/13 04:38:52;;;;;;;;;;;;;;;19.52;71.93;99469.97;3128377;28;19968;-63
2022/06/13 04:40:25;;;;;;;;;;;;;;;19.53;71.86;99471.66;3128416;28;20039;-63
2022/06/13 04:41:59;;;;;;;;;;;;;;;19.54;71.62;99468.88;3128524;28;19925;-63
2022/06/13 04:43:36;;;;;;;;;;;;;;;19.57;71.56;99473.06;3128498;28;20027;-63
2022/06/13 04:45:15;;;;;;;;;;;;;;;19.63;71.51;99471.69;3128031;28;19936;-64
2022/06/13 04:46:47;;;;;;;;;;;;;;;19.67;71.23;99475.75;3128351;28;19971;-64
2022/06/13 04:48:19;;;;;;;;;;;;;;;19.72;70.98;99481.47;3128309;28;20610;-64
2022/06/13 04:49:53;;;;;;;;;;;;;;;19.74;70.76;99475.09;3127885;28;20342;-64
2022/06/13 04:51:26;;;;;;;;;;;;;;;19.80;70.68;99480.81;3128275;28;20033;-65
2022/06/13 04:52:59;;;;;;;;;;;;;;;19.83;70.34;99478.72;3126754;28;19947;-64
2022/06/13 04:54:33;;;;;;;;;;;;;;;19.86;70.09;99474.97;3128003;28;20380;-65
2022/06/13 04:56:05;;;;;;;;;;;;;;;19.89;70.22;99474.69;3128051;28;20208;-65
2022/06/13 04:57:36;;;;;;;;;;;;;;;19.93;70.13;99481.38;3126559;28;20018;-63
2022/06/13 04:59:13;;;;;;;;;;;;;;;19.98;69.99;99473.88;3128203;28;20011;-62
2022/06/13 05:00:45;;;;;;;;;;;;;;;20.00;69.94;99472.78;3126877;28;19936;-63
2022/06/13 05:02:19;;;;;;;;;;;;;;;20.06;69.81;99465.28;3127764;28;19925;-63
2022/06/13 05:03:51;;;;;;;;;;;;;;;20.10;69.80;99470.13;3127900;28;19925;-63
2022/06/13 05:05:36;;;;;;;;;;;;;;;20.15;69.70;99470.56;3128469;28;19999;-62
2022/06/13 05:07:10;;;;;;;;;;;;;;;20.19;69.41;99471.94;3121454;28;19975;-62
2022/06/13 05:08:43;;;;;;;;;;;;;;;20.23;69.30;99470.69;3127715;28;19981;-63
2022/06/13 05:10:17;;;;;;;;;;;;;;;20.29;69.35;99476.38;3127873;28;19995;-63
2022/06/13 05:11:51;;;;;;;;;;;;;;;20.35;69.80;99473.19;3127848;28;19925;-63
2022/06/13 05:13:25;;;;;;;;;;;;;;;20.37;69.33;99472.06;3128101;28;20773;-63
2022/06/13 05:15:01;;;;;;;;;;;;;;;20.43;69.44;99473.31;3127035;28;19924;-65
2022/06/13 05:16:43;;;;;;;;;;;;;;;20.48;69.11;99472.91;3128019;28;20193;-63
2022/06/13 05:18:36;;;;;;;;;;;;;;;20.52;68.52;99475.16;3127906;28;19931;-64
2022/06/13 05:20:11;;;;;;;;;;;;;;;20.60;68.36;99471.81;3127528;28;19924;-63
2022/06/13 05:21:50;;;;;;;;;;;;;;;20.66;68.24;99472.06;3127817;28;19925;-63
2022/06/13 05:23:31;;;;;;;;;;;;;;;20.72;67.69;99467.19;3128057;28;19925;-63
2022/06/13 05:25:13;;;;;;;;;;;;;;;20.80;67.27;99472.63;3128892;28;20403;-63
2022/06/13 05:26:45;;;;;;;;;;;;;;;20.87;67.33;99468.41;3124478;28;19924;-64
2022/06/13 05:28:18;;;;;;;;;;;;;;;20.93;66.83;99465.19;3123759;28;20015;-62
2022/06/13 05:29:50;;;;;;;;;;;;;;;20.99;66.55;99461.13;3121887;28;19925;-64
2022/06/13 05:31:23;;;;;;;;;;;;;;;21.07;66.69;99459.44;3124058;28;19925;-63
2022/06/13 05:32:55;;;;;;;;;;;;;;;21.13;66.07;99463.31;3123757;28;19931;-64
2022/06/13 05:34:30;;;;;;;;;;;;;;;21.20;66.53;99460.94;3123808;28;20656;-64
2022/06/13 05:36:02;;;;;;;;;;;;;;;21.25;65.55;99463.97;3124555;28;20299;-64
2022/06/13 05:37:34;;;;;;;;;;;;;;;21.32;65.54;99465.06;3123365;28;19947;-63
2022/06/13 05:39:07;;;;;;;;;;;;;;;21.39;64.99;99462.72;3122990;28;19929;-64
2022/06/13 05:40:39;;;;;;;;;;;;;;;21.44;64.86;99466.56;3122606;28;20483;-64
2022/06/13 05:42:11;;;;;;;;;;;;;;;21.51;64.89;99466.81;3125487;28;19990;-64
2022/06/13 05:43:43;;;;;;;;;;;;;;;21.56;64.68;99460.09;3127352;28;20398;-63
2022/06/13 05:45:16;;;;;;;;;;;;;;;21.63;64.51;99467.47;3124414;28;19931;-63
2022/06/13 05:46:49;;;;;;;;;;;;;;;21.68;63.99;99468.69;3123350;28;19950;-64
2022/06/13 05:48:22;;;;;;;;;;;;;;;21.75;64.00;99463.63;3123025;28;19935;-63
2022/06/13 05:49:54;;;;;;;;;;;;;;;21.80;63.58;99467.50;3122614;28;20393;-63
2022/06/13 05:51:26;;;;;;;;;;;;;;;21.85;63.18;99463.53;3122996;28;19952;-63
2022/06/13 05:52:57;;;;;;;;;;;;;;;21.89;63.18;99457.81;3123503;28;19931;-64
2022/06/13 05:54:29;;;;;;;;;;;;;;;21.95;63.11;99454.56;3123686;28;20670;-64
2022/06/13 05:56:02;;;;;;;;;;;;;;;22.00;63.12;99459.38;3124448;28;19975;-64
2022/06/13 05:57:34;;;;;;;;;;;;;;;22.07;62.66;99460.47;3123497;28;20459;-63
2022/06/13 05:59:06;;;;;;;;;;;;;;;22.12;62.71;99460.81;3122730;28;19929;-63
2022/06/13 06:00:41;;;;;;;;;;;;;;;22.18;62.73;99459.41;3122723;28;19925;-65
2022/06/13 06:02:14;;;;;;;;;;;;;;;22.24;62.48;99464.13;3122588;28;20404;-65
2022/06/13 06:03:45;;;;;;;;;;;;;;;22.29;62.12;99464.50;3122404;28;20073;-63
2022/06/13 06:05:17;;;;;;;;;;;;;;;22.34;61.86;99459.56;3123424;28;19925;-63
2022/06/13 06:06:49;;;;;;;;;;;;;;;22.41;61.99;99460.63;3126460;28;19967;-62
2022/06/13 06:08:22;;;;;;;;;;;;;;;22.45;61.45;99453.19;3127745;28;19955;-66
2022/06/13 06:09:54;;;;;;;;;;;;;;;22.49;60.85;99457.22;3127846;28;20402;-65
2022/06/13 06:11:26;;;;;;;;;;;;;;;22.55;61.02;99461.06;3127676;28;19925;-68
2022/06/13 06:12:58;;;;;;;;;;;;;;;22.60;61.01;99456.13;3127631;28;19925;-65
2022/06/13 06:14:30;;;;;;;;;;;;;;;22.66;61.47;99452.88;3127686;28;20436;-63
2022/06/13 06:16:02;;;;;;;;;;;;;;;22.71;60.71;99455.84;3125881;28;20023;-63
2022/06/13 06:17:35;;;;;;;;;;;;;;;22.76;60.75;99458.06;3127541;28;19978;-63
2022/06/13 06:19:06;;;;;;;;;;;;;;;22.80;60.51;99465.53;3127811;28;20069;-63
2022/06/13 06:20:38;;;;;;;;;;;;;;;22.84;60.07;99464.25;3127571;28;19932;-64
2022/06/13 06:22:10;;;;;;;;;;;;;;;22.88;59.84;99468.25;3127665;28;19960;-62
2022/06/13 06:23:42;;;;;;;;;;;;;;;22.92;59.83;99471.44;3127149;28;19931;-62
2022/06/13 06:25:14;;;;;;;;;;;;;;;22.96;59.56;99466.69;3127370;28;19986;-64
2022/06/13 06:26:45;;;;;;;;;;;;;;;22.99;59.67;99471.69;3129502;28;19932;-62
2022/06/13 06:28:18;;;;;;;;;;;;;;;23.03;59.45;99468.53;3130064;28;20304;-64
2022/06/13 06:29:49;;;;;;;;;;;;;;;23.06;59.36;99476.19;3128159;28;19925;-61
2022/06/13 06:31:21;;;;;;;;;;;;;;;23.09;59.45;99467.09;3129933;28;19932;-63
2022/06/13 06:32:55;;;;;;;;;;;;;;;23.13;58.89;99476.38;3130136;28;19931;-62
2022/06/13 06:34:26;;;;;;;;;;;;;;;23.19;59.60;99466.97;3129902;28;19971;-63
2022/06/13 06:35:58;;;;;;;;;;;;;;;23.25;59.59;99469.84;3126988;28;19924;-63
2022/06/13 06:37:32;;;;;;;;;;;;;;;23.31;58.99;99463.88;3130018;28;20364;-61
2022/06/13 06:39:04;;;;;;;;;;;;;;;23.38;58.92;99466.72;3129647;28;20376;-63
2022/06/13 06:40:36;;;;;;;;;;;;;;;23.46;59.08;99471.25;3129740;28;20298;-63
2022/06/13 06:42:08;;;;;;;;;;;;;;;23.49;58.74;99462.97;3132007;28;19924;-63
2022/06/13 06:43:39;;;;;;;;;;;;;;;23.51;58.46;99467.09;3133541;28;19982;-64
2022/06/13 06:45:12;;;;;;;;;;;;;;;23.55;58.57;99468.47;3129837;28;19924;-63
2022/06/13 06:46:43;;;;;;;;;;;;;;;23.60;58.04;99473.28;3129259;28;19987;-64
2022/06/13 06:48:17;;;;;;;;;;;;;;;23.61;57.54;99470.47;3127015;28;19924;-63
2022/06/13 06:49:49;;;;;;;;;;;;;;;23.65;57.62;99460.34;3128915;28;19955;-63
2022/06/13 06:51:20;;;;;;;;;;;;;;;23.73;57.59;99472.88;3129250;28;19925;-63
2022/06/13 06:52:52;;;;;;;;;;;;;;;23.78;57.40;99463.41;3130028;28;19931;-66
2022/06/13 06:59:57;;;;;;;;;;;;;;;23.93;57.35;99474.25;3100612;28;20612;-64
2022/06/13 07:01:29;;;;;;;;;;;;;;;23.96;56.88;99465.94;3112636;28;19928;-65
2022/06/13 07:03:01;;;;;;;;;;;;;;;23.95;56.41;99472.25;3129058;28;20115;-63
2022/06/13 07:04:34;;;;;;;;;;;;;;;23.95;56.23;99461.59;3129656;28;19932;-64
2022/06/13 07:06:07;;;;;;;;;;;;;;;23.99;56.54;99467.44;3129589;28;19928;-64
2022/06/13 07:07:38;;;;;;;;;;;;;;;24.06;56.49;99461.28;3129686;28;19951;-64
2022/06/13 07:09:12;;;;;;;;;;;;;;;24.14;56.61;99460.50;3129753;28;19932;-65
2022/06/13 07:10:49;;;;;;;;;;;;;;;24.23;56.69;99456.84;3130011;28;19939;-66
2022/06/13 07:12:19;;;;;;;;;;;;;;;24.33;56.02;99456.66;3129739;28;19990;-64
2022/06/13 07:13:51;;;;;;;;;;;;;;;24.41;56.62;99461.16;3129450;28;20193;-65
2022/06/13 07:15:23;;;;;;;;;;;;;;;24.46;55.91;99451.72;3128923;28;20017;-65
2022/06/13 07:16:54;;;;;;;;;;;;;;;24.51;55.66;99452.03;3130751;28;19925;-65
2022/06/13 07:18:26;;;;;;;;;;;;;;;24.50;55.61;99450.38;3125260;28;20285;-65
2022/06/13 07:19:59;;;;;;;;;;;;;;;24.58;55.43;99460.19;3125249;28;20415;-66
2022/06/13 07:21:31;;;;;;;;;;;;;;;24.61;55.29;99454.53;3124957;28;20089;-65
2022/06/13 07:23:03;;;;;;;;;;;;;;;24.67;55.98;99467.16;3125745;28;20417;-65
2022/06/13 07:24:35;;;;;;;;;;;;;;;24.76;55.74;99468.00;3124657;28;20390;-65
2022/06/13 07:26:07;;;;;;;;;;;;;;;24.81;55.12;99462.97;3124838;28;19937;-64
2022/06/13 07:27:39;;;;;;;;;;;;;;;24.88;55.04;99469.31;3125394;28;19948;-65
2022/06/13 07:29:11;;;;;;;;;;;;;;;24.97;55.29;99478.09;3123058;28;19935;-66
2022/06/13 07:30:42;;;;;;;;;;;;;;;25.06;54.53;99471.75;3124010;28;20214;-64
2022/06/13 07:32:16;;;;;;;;;;;;;;;25.12;53.96;99471.06;3127964;28;20409;-64
2022/06/13 07:33:48;;;;;;;;;;;;;;;25.22;54.06;99467.41;3129226;28;19925;-63
2022/06/13 07:35:23;;;;;;;;;;;;;;;25.31;53.76;99469.03;3129270;28;19931;-65
2022/06/13 07:36:55;;;;;;;;;;;;;;;25.40;53.81;99468.00;3129133;28;19929;-64
2022/06/13 07:38:26;;;;;;;;;;;;;;;25.48;53.71;99465.31;3128487;28;19924;-65
2022/06/13 07:39:58;;;;;;;;;;;;;;;25.58;53.80;99473.09;3129062;28;20032;-65
2022/06/13 07:41:30;;;;;;;;;;;;;;;25.67;53.27;99464.03;3128965;28;19978;-66
2022/06/13 07:43:03;;;;;;;;;;;;;;;25.76;52.79;99468.31;3135541;28;19924;-65
2022/06/13 07:44:37;;;;;;;;;;;;;;;25.83;52.24;99472.00;3129210;28;19925;-66
2022/06/13 07:46:11;;;;;;;;;;;;;;;25.87;52.05;99472.47;3125515;28;19925;-67
2022/06/13 07:47:42;;;;;;;;;;;;;;;26.00;52.43;99471.88;3128850;28;19925;-67
2022/06/13 07:49:14;;;;;;;;;;;;;;;26.09;52.65;99478.84;3128778;28;19924;-63
2022/06/13 07:50:47;;;;;;;;;;;;;;;26.16;51.37;99473.63;3129548;28;19935;-63
2022/06/13 07:52:18;;;;;;;;;;;;;;;26.23;52.09;99466.56;3129182;28;19947;-63
2022/06/13 07:53:50;;;;;;;;;;;;;;;26.33;51.99;99467.16;3128905;28;19925;-64
2022/06/13 07:55:25;;;;;;;;;;;;;;;26.41;51.76;99467.06;3128876;28;19925;-66
2022/06/13 07:56:56;;;;;;;;;;;;;;;26.51;51.98;99465.03;3128838;28;19931;-66
2022/06/13 07:58:31;;;;;;;;;;;;;;;26.61;51.85;99470.09;3128690;28;20103;-72
2022/06/13 08:00:04;;;;;;;;;;;;;;;26.69;50.99;99459.34;3129028;28;20062;-65
2022/06/13 08:01:37;;;;;;;;;;;;;;;26.78;50.97;99462.78;3128358;28;20189;-67
2022/06/13 08:03:09;;;;;;;;;;;;;;;26.88;51.04;99462.50;3128853;28;19932;-67
2022/06/13 08:04:40;;;;;;;;;;;;;;;26.95;50.23;99468.78;3128916;28;20255;-69
2022/06/13 08:06:14;;;;;;;;;;;;;;;26.95;48.88;99466.13;3128762;28;20026;-69
2022/06/13 08:07:45;;;;;;;;;;;;;;;26.90;48.16;99466.66;3127957;28;19935;-69
2022/06/13 08:09:17;;;;;;;;;;;;;;;26.91;48.75;99468.31;3128320;28;20744;-69
2022/06/13 08:10:49;;;;;;;;;;;;;;;26.91;48.92;99470.16;3128726;28;20390;-65
2022/06/13 08:12:22;;;;;;;;;;;;;;;26.89;48.51;99469.53;3128680;28;19928;-69
2022/06/13 08:13:54;;;;;;;;;;;;;;;26.89;48.30;99466.84;3128267;28;19925;-67
2022/06/13 08:15:26;;;;;;;;;;;;;;;26.87;48.48;99467.03;3128791;28;19925;-67
2022/06/13 08:16:57;;;;;;;;;;;;;;;26.89;47.94;99464.19;3128686;28;19925;-66
2022/06/13 08:18:29;;;;;;;;;;;;;;;26.89;48.31;99470.34;3128333;28;20246;-68